LDPL/PUY METAR and TAF weather

Enter ICAO airport designator
Station Type Date Time Source
LDPL METAR 2020/01/23 21:00 UTC NOAA

LDPL 232100Z 01005KT CAVOK 04/M00 Q1029 NOSIG


Station Type Date Time Source
LDPL Decoded METAR 2020/01/23 21:00 UTC NOAA

Pula Aerodrome, Croatia (LDPL) 45-54N 013-55E 63M
Jan 23, 2020 - 04:00 PM EST / 2020.01.23 2100 UTC
Wind: from the N (010 degrees) at 6 MPH (5 KT):0
Visibility: greater than 7 mile(s):0
Temperature: 39 F (4 C)
Dew Point: 32 F (0 C)
Relative Humidity: 75%
Pressure (altimeter): 30.39 in. Hg (1029 hPa)
ob: LDPL 232100Z 01005KT CAVOK 04/M00 Q1029 NOSIG
cycle: 21

Station Type Date Time Source
LDPL TAF 2020/01/23 18:29 UTC NOAA

TAF LDPL 231725Z 2318/2418 02005KT CAVOK TX13/2413Z TNM02/2405Z

Example: see airport list